createdAt,value
2018-04-15T00:00:01.337Z,8.2
2018-04-15T00:05:02.542Z,8.3
2018-04-15T00:10:01.908Z,8.3
2018-04-15T00:15:02.352Z,8.4
2018-04-15T00:20:02.930Z,8.4
2018-04-15T00:25:01.492Z,8.4
2018-04-15T00:30:01.729Z,8.5
2018-04-15T00:35:01.532Z,8.5
2018-04-15T00:40:03.098Z,8.5
2018-04-15T00:45:01.639Z,8.6
2018-04-15T00:50:02.037Z,8.7
2018-04-15T00:55:01.670Z,8.7
2018-04-15T01:00:02.230Z,8.8
2018-04-15T01:05:01.221Z,8.9
2018-04-15T01:10:02.008Z,8.9
2018-04-15T01:15:01.457Z,8.8
2018-04-15T01:20:01.852Z,8.9
2018-04-15T01:25:01.574Z,8.9
2018-04-15T01:30:01.753Z,8.9
2018-04-15T01:35:02.266Z,8.9
2018-04-15T01:40:01.181Z,8.9
2018-04-15T01:45:01.360Z,8.9
2018-04-15T01:50:01.469Z,8.9
2018-04-15T01:55:02.536Z,8.9
2018-04-15T02:00:01.708Z,9
2018-04-15T02:05:01.537Z,8.9
2018-04-15T02:10:01.543Z,9
2018-04-15T02:15:02.154Z,9
2018-04-15T02:20:01.361Z,9
2018-04-15T02:25:01.264Z,9
2018-04-15T02:30:01.644Z,9
2018-04-15T02:35:02.394Z,9
2018-04-15T02:40:01.667Z,9
2018-04-15T02:45:01.570Z,9
2018-04-15T02:50:01.330Z,9
2018-04-15T02:55:01.898Z,9.1
2018-04-15T03:00:01.298Z,9.1
2018-04-15T03:05:01.232Z,9.1
2018-04-15T03:10:01.547Z,9.2
2018-04-15T03:15:01.508Z,9.3
2018-04-15T03:20:01.432Z,9.3
2018-04-15T03:25:01.965Z,9.3
2018-04-15T03:30:01.352Z,9.2
2018-04-15T03:35:01.844Z,9.2
2018-04-15T03:40:02.400Z,9.2
2018-04-15T03:45:02.068Z,9.2
2018-04-15T03:50:02.158Z,9.2
2018-04-15T03:55:02.620Z,9.2
2018-04-15T04:00:01.840Z,9.2
2018-04-15T04:05:01.876Z,9.2
2018-04-15T04:10:01.836Z,9.2
2018-04-15T04:15:01.373Z,9.2
2018-04-15T04:20:01.649Z,9.2
2018-04-15T04:25:01.360Z,9.2
2018-04-15T04:30:02.007Z,9.2
2018-04-15T04:35:01.665Z,9.1
2018-04-15T04:40:02.013Z,9.1
2018-04-15T04:45:02.155Z,9.1
2018-04-15T04:50:02.176Z,9.2
2018-04-15T04:55:01.769Z,9.2
2018-04-15T05:00:02.745Z,9.2
2018-04-15T05:05:01.972Z,9.2
2018-04-15T05:10:01.515Z,9.2
2018-04-15T05:15:01.720Z,9.3
2018-04-15T05:20:02.142Z,9.3
2018-04-15T05:25:01.886Z,9.4
2018-04-15T05:30:02.132Z,9.4
2018-04-15T05:35:01.194Z,9.4
2018-04-15T05:40:01.805Z,9.5
2018-04-15T05:45:02.195Z,9.4
2018-04-15T05:50:01.353Z,9.5
2018-04-15T05:55:02.476Z,9.5
2018-04-15T06:00:01.960Z,9.6
2018-04-15T06:05:01.674Z,9.7
2018-04-15T06:10:01.998Z,9.7
2018-04-15T06:15:02.440Z,9.8
2018-04-15T06:20:02.012Z,9.9
2018-04-15T06:25:01.728Z,9.9
2018-04-15T06:30:02.064Z,10
2018-04-15T06:35:02.500Z,10.1
2018-04-15T06:40:01.216Z,10.2
2018-04-15T06:45:01.482Z,10.4
2018-04-15T06:50:01.613Z,10.6
2018-04-15T06:55:02.193Z,10.7
2018-04-15T07:00:01.258Z,10.9
2018-04-15T07:05:01.275Z,11
2018-04-15T07:10:02.033Z,11.1
2018-04-15T07:15:01.590Z,11.2
2018-04-15T07:20:01.549Z,11.3
2018-04-15T07:25:01.696Z,11.5
2018-04-15T07:30:02.431Z,11.7
2018-04-15T07:35:01.950Z,12.1
2018-04-15T07:40:01.297Z,12.3
2018-04-15T07:45:01.616Z,12.6
2018-04-15T07:50:01.644Z,12.9
2018-04-15T07:55:01.943Z,13.1
2018-04-15T08:00:01.600Z,13.3
2018-04-15T08:05:01.915Z,13.3
2018-04-15T08:10:01.266Z,13.2
2018-04-15T08:15:01.792Z,13.3
2018-04-15T08:20:02.231Z,13.5
2018-04-15T08:25:01.957Z,13.4
2018-04-15T08:30:01.497Z,13.4
2018-04-15T08:35:02.635Z,13.3
2018-04-15T08:40:01.754Z,13.2
2018-04-15T08:45:01.227Z,13
2018-04-15T08:50:01.732Z,12.9
2018-04-15T08:55:01.784Z,12.9
2018-04-15T09:00:01.363Z,12.9
2018-04-15T09:05:02.139Z,12.7
2018-04-15T09:10:01.933Z,12.6
2018-04-15T09:15:01.737Z,12.6
2018-04-15T09:20:02.026Z,12.5
2018-04-15T09:25:01.617Z,12.4
2018-04-15T09:30:01.985Z,12.1
2018-04-15T09:35:01.700Z,11.9
2018-04-15T09:40:02.024Z,11.5
2018-04-15T09:45:01.631Z,11.4
2018-04-15T09:50:01.766Z,11.2
2018-04-15T09:55:01.731Z,11
2018-04-15T10:00:01.814Z,11
2018-04-15T10:05:01.954Z,10.8
2018-04-15T10:10:02.104Z,10.7
2018-04-15T10:15:01.265Z,10.6
2018-04-15T10:20:02.391Z,10.6
2018-04-15T10:25:01.163Z,10.6
2018-04-15T10:30:01.840Z,10.5
2018-04-15T10:35:01.354Z,10.5
2018-04-15T10:40:01.701Z,10.4
2018-04-15T10:45:02.116Z,10.3
2018-04-15T10:50:01.186Z,10.3
2018-04-15T10:55:02.445Z,10.4
2018-04-15T11:00:01.928Z,10.4
2018-04-15T11:05:01.846Z,10.4
2018-04-15T11:10:01.399Z,10.5
2018-04-15T11:15:01.931Z,10.5
2018-04-15T11:20:01.686Z,10.5
2018-04-15T11:25:01.746Z,10.4
2018-04-15T11:30:01.718Z,10.3
2018-04-15T11:35:01.237Z,10.3
2018-04-15T11:40:01.291Z,10.4
2018-04-15T11:45:02.325Z,10.4
2018-04-15T11:50:01.249Z,10.5
2018-04-15T11:55:01.729Z,10.3
2018-04-15T12:00:02.536Z,10.1
2018-04-15T12:05:01.404Z,9.7
2018-04-15T12:10:01.446Z,9.5
2018-04-15T12:15:01.585Z,9.5
2018-04-15T12:20:01.811Z,9.6
2018-04-15T12:25:01.310Z,9.8
2018-04-15T12:30:01.981Z,9.8
2018-04-15T12:35:02.091Z,10
2018-04-15T12:40:01.997Z,10.1
2018-04-15T12:45:01.991Z,10.3
2018-04-15T12:50:01.254Z,10.4
2018-04-15T12:55:02.575Z,10.4
2018-04-15T13:00:02.010Z,10.4
2018-04-15T13:05:02.177Z,10.4
2018-04-15T13:10:01.972Z,10.6
2018-04-15T13:15:01.754Z,10.7
2018-04-15T13:20:01.538Z,10.8
2018-04-15T13:25:01.757Z,10.8
2018-04-15T13:30:01.598Z,10.6
2018-04-15T13:35:01.568Z,10.5
2018-04-15T13:40:01.592Z,10.4
2018-04-15T13:45:02.068Z,10.1
2018-04-15T13:50:01.216Z,10
2018-04-15T13:55:01.217Z,9.8
2018-04-15T14:00:02.003Z,9.8
2018-04-15T14:05:01.998Z,9.6
2018-04-15T14:10:01.989Z,9.5
2018-04-15T14:15:01.762Z,9.7
2018-04-15T14:20:01.563Z,9.6
2018-04-15T14:25:01.776Z,9.3
2018-04-15T14:30:01.636Z,9.3
2018-04-15T14:35:01.520Z,9.2
2018-04-15T14:40:01.326Z,9.1
2018-04-15T14:45:02.345Z,9
2018-04-15T14:50:02.096Z,8.9
2018-04-15T14:55:01.502Z,8.9
2018-04-15T15:00:01.951Z,8.9
2018-04-15T15:05:01.676Z,8.7
2018-04-15T15:10:01.743Z,8.8
2018-04-15T15:15:01.262Z,8.6
2018-04-15T15:20:02.475Z,8.7
2018-04-15T15:25:01.602Z,8.7
2018-04-15T15:30:01.427Z,8.8
2018-04-15T15:35:01.415Z,8.9
2018-04-15T15:40:02.055Z,9
2018-04-15T15:45:01.771Z,9.1
2018-04-15T15:50:02.096Z,9.2
2018-04-15T15:55:02.013Z,9.1
2018-04-15T16:00:01.205Z,9.3
2018-04-15T16:05:01.384Z,9.3
2018-04-15T16:10:01.744Z,9.4
2018-04-15T16:15:01.782Z,9.5
2018-04-15T16:20:01.577Z,9.7
2018-04-15T16:25:01.944Z,9.8
2018-04-15T16:30:02.026Z,10
2018-04-15T16:35:01.595Z,10.4
2018-04-15T16:40:01.411Z,10.4
2018-04-15T16:45:01.917Z,10.5
2018-04-15T16:50:01.983Z,10.5
2018-04-15T16:55:01.953Z,10.4
2018-04-15T17:00:01.930Z,10.2
2018-04-15T17:05:01.674Z,9.9
2018-04-15T17:10:01.700Z,9.8
2018-04-15T17:15:01.599Z,9.6
2018-04-15T17:20:01.308Z,9.4
2018-04-15T17:25:01.292Z,9.3
2018-04-15T17:30:02.289Z,9.2
2018-04-15T17:35:01.423Z,9.2
2018-04-15T17:40:01.226Z,9.2
2018-04-15T17:45:01.532Z,9.1
2018-04-15T17:50:02.194Z,9.1
2018-04-15T17:55:01.614Z,8.9
2018-04-15T18:00:02.122Z,9
2018-04-15T18:05:01.868Z,9
2018-04-15T18:10:02.035Z,9
2018-04-15T18:15:02.580Z,9
2018-04-15T18:20:01.532Z,9
2018-04-15T18:25:01.720Z,9
2018-04-15T18:30:02.061Z,8.9
2018-04-15T18:35:02.004Z,8.9
2018-04-15T18:40:02.123Z,8.8
2018-04-15T18:45:02.143Z,8.7
2018-04-15T18:50:01.318Z,8.4
2018-04-15T18:55:01.876Z,8.2
2018-04-15T19:00:01.588Z,8.2
2018-04-15T19:05:01.384Z,8.1
2018-04-15T19:10:01.794Z,8
2018-04-15T19:15:01.592Z,8.1
2018-04-15T19:20:02.385Z,8.1
2018-04-15T19:25:02.021Z,8
2018-04-15T19:30:01.528Z,8
2018-04-15T19:35:02.070Z,8
2018-04-15T19:40:01.824Z,7.9
2018-04-15T19:45:01.458Z,7.8
2018-04-15T19:50:02.061Z,7.8
2018-04-15T19:55:01.355Z,7.7
2018-04-15T20:00:01.706Z,7.7
2018-04-15T20:05:01.567Z,7.6
2018-04-15T20:10:01.528Z,7.6
2018-04-15T20:15:01.591Z,7.5
2018-04-15T20:20:02.223Z,7.4
2018-04-15T20:25:01.386Z,7.3
2018-04-15T20:30:01.558Z,7.1
2018-04-15T20:35:01.273Z,7.1
2018-04-15T20:40:01.911Z,7.1
2018-04-15T20:45:02.146Z,7.1
2018-04-15T20:50:01.914Z,7
2018-04-15T20:55:01.984Z,7
2018-04-15T21:00:01.335Z,7
2018-04-15T21:05:01.688Z,6.8
2018-04-15T21:10:02.105Z,6.8
2018-04-15T21:15:01.581Z,6.6
2018-04-15T21:20:01.587Z,6.5
2018-04-15T21:25:01.768Z,6.6
2018-04-15T21:30:02.552Z,6.5
2018-04-15T21:35:01.978Z,6.6
2018-04-15T21:40:02.057Z,6.5
2018-04-15T21:45:01.688Z,6.5
2018-04-15T21:50:01.838Z,6.4
2018-04-15T21:55:01.784Z,6.4
2018-04-15T22:00:01.287Z,6.3
2018-04-15T22:05:02.214Z,6.4
2018-04-15T22:10:02.009Z,6.3
2018-04-15T22:15:01.712Z,6.3
2018-04-15T22:20:01.675Z,6.2
2018-04-15T22:25:02.324Z,6.2
2018-04-15T22:30:01.516Z,6.2
2018-04-15T22:35:01.874Z,6.1
2018-04-15T22:40:02.475Z,6.1
2018-04-15T22:45:01.839Z,6
2018-04-15T22:50:01.687Z,6
2018-04-15T22:55:01.919Z,6
2018-04-15T23:00:02.336Z,6
2018-04-15T23:05:01.198Z,5.9
2018-04-15T23:10:01.241Z,5.9
2018-04-15T23:15:02.547Z,5.8
2018-04-15T23:20:02.262Z,5.8
2018-04-15T23:25:01.724Z,5.8
2018-04-15T23:30:01.670Z,5.8
2018-04-15T23:35:03.023Z,5.9
2018-04-15T23:40:02.110Z,5.8
2018-04-15T23:45:02.547Z,5.7
2018-04-15T23:50:01.752Z,5.8
2018-04-15T23:55:02.224Z,5.7
